Flight Track Log - Related Links

Times and Time Zones

All times are in EST time to prevent confusion due to time zone crossing. See the EJA142 flight status page for this flight to view local times or setup timezone preferences in your user account.

Time Position Orientation Groundspeed Altitude Reporting Facility
EST Latitude Longitude Course Direction KTS MPH feet Rate Location/Type
Wed 10:04:41 AM 26.7392 -79.9481 53° Northeast 279 321 8,400  Level Miami Center
Wed 10:05:41 AM 26.8008 -79.8869 41° Northeast 289 333 11,000 1,300 Climbing Miami Center
Wed 10:06:41 AM 26.8656 -79.7953 52° Northeast 340 391 11,000 200 Level Miami Center
Wed 10:07:41 AM 26.9236 -79.7083 53° Northeast 377 434 11,400 1,250 Climbing Miami Center
Wed 10:08:00 AM 27.0434 -79.5099 53° Northeast  Level FlightAware Approximate
Wed 10:08:41 AM 26.9861 -79.6097 55° Northeast 383 441 13,500  Level Miami Center
Wed 10:09:41 AM 27.0633 -79.4972 52° Northeast 399 459 16,500 2,850 Climbing Miami Center
Wed 10:10:41 AM 27.1300 -79.3914 55° Northeast 399 459 19,200 2,650 Climbing Miami Center
Wed 10:11:41 AM 27.1942 -79.2922 54° Northeast 421 484 21,800 2,350 Climbing Miami Center
Wed 10:12:41 AM 27.2650 -79.1794 55° Northeast 437 503 23,900 2,200 Climbing Miami Center
Wed 10:13:41 AM 27.3547 -79.0503 52° Northeast 459 528 26,200 2,100 Climbing Miami Center
Wed 10:14:41 AM 27.4786 -79.0056 18° North 444 511 28,100 1,750 Climbing Miami Center
Wed 10:15:41 AM 27.6083 -78.9869 North 444 511 29,700 2,150 Climbing Miami Center
Wed 10:16:41 AM 27.7297 -78.9658 North 469 540 32,400 2,300 Climbing Miami Center
Wed 10:17:41 AM 27.8594 -78.9494 North 474 545 34,300 1,400 Climbing Miami Center
Wed 10:18:41 AM 27.9933 -78.9283 North 474 545 35,200 1,750 Climbing Miami Center
Wed 10:19:41 AM 28.1294 -78.9072 North 486 559 37,800 1,950 Climbing Miami Center
Wed 10:20:41 AM 28.2633 -78.8861 North 486 559 39,100 1,450 Climbing Miami Center
Wed 10:21:41 AM 28.3972 -78.8650 North 486 559 40,700 950 Climbing Miami Center
Wed 10:22:41 AM 28.5353 -78.8461 North 491 565 41,000 150 Climbing Miami Center
Wed 10:23:41 AM 28.6692 -78.8225 North 484 557 41,000  Level Miami Center
Wed 10:24:41 AM 28.8050 -78.8011 North 484 557 41,000  Level Miami Center
Wed 10:25:41 AM 28.9389 -78.7797 North 484 557 41,000  Level Miami Center
Wed 10:26:41 AM 29.0789 -78.7608 North 484 557 41,000  Level Miami Center
Wed 10:27:41 AM 29.2128 -78.7347 10° North 489 563 41,000  Level Miami Center
Wed 10:28:41 AM 29.3508 -78.7156 North 489 563 41,000  Level Miami Center
Wed 10:29:41 AM 29.4950 -78.6967 North 494 568 41,000  Level Miami Center
Wed 10:32:11 AM 29.8508 -78.6303 North 500 575 41,000  Level Jacksonville Center
Wed 10:33:11 AM 29.9922 -78.6097 North 502 578 41,000  Level Jacksonville Center
Wed 10:34:11 AM 30.1289 -78.5844 North 502 578 41,000  Level Jacksonville Center
Wed 10:35:11 AM 30.2578 -78.5692 North 503 579 41,000  Level Jacksonville Center
Wed 10:36:11 AM 30.3969 -78.5436 North 503 579 41,000  Level Jacksonville Center
Wed 10:37:11 AM 30.5319 -78.5231 North 503 579 41,000  Level Jacksonville Center
Wed 10:38:11 AM 30.6772 -78.4994 North 503 579 41,000  Level Jacksonville Center
Wed 10:39:11 AM 30.8161 -78.4758 North 508 585 41,000  Level Jacksonville Center
Wed 10:40:11 AM 30.9594 -78.4522 North 508 585 41,000  Level Jacksonville Center
Wed 10:41:11 AM 31.1028 -78.4333 North 508 585 41,000  Level Jacksonville Center
Wed 10:42:11 AM 31.2439 -78.4072 North 508 585 41,000  Level Jacksonville Center
Wed 10:43:11 AM 31.3808 -78.3836 North 497 572 41,000  Level Jacksonville Center
Wed 10:44:11 AM 31.5197 -78.3600 North 497 572 41,000  Level Jacksonville Center
Wed 10:45:11 AM 31.6525 -78.3389 North 497 572 41,000  Level Jacksonville Center
Wed 10:46:11 AM 31.7897 -78.3172 North 497 572 41,000  Level Jacksonville Center
Wed 10:47:11 AM 31.9286 -78.2908 North 502 578 41,000  Level Jacksonville Center
Wed 10:48:11 AM 32.0675 -78.2692 North 502 578 41,000  Level Jacksonville Center
Wed 10:49:11 AM 32.2186 -78.2344 11° North 495 570 41,000  Level Jacksonville Center
Wed 10:50:11 AM 32.3578 -78.2128 North 503 579 41,000  Level Jacksonville Center
Wed 10:51:11 AM 32.4969 -78.1958 North 503 579 41,000 -50 Level Jacksonville Center
Wed 10:52:11 AM 32.6336 -78.1664 10° North 503 579 40,900  Descending Jacksonville Center
Wed 10:53:11 AM 32.7683 -78.1469 North 498 573 41,000 50 Climbing Jacksonville Center
Wed 10:54:11 AM 32.9075 -78.1247 North 498 573 41,000 -38 Level Jacksonville Center
Wed 10:55:49 AM 33.1300 -78.0883 North 510 587 40,900  Descending Washington Center
Wed 10:56:50 AM 33.2639 -78.0625 North 503 579 41,000 50 Climbing Washington Center
Wed 10:57:50 AM 33.4042 -78.0417 North 503 579 41,000  Level Washington Center
Wed 10:58:48 AM 33.5381 -78.0158 North 497 572 41,000  Level Washington Center
Wed 10:59:48 AM 33.6742 -77.9947 North 497 572 41,000  Level Washington Center
Wed 11:00:50 AM 33.8061 -77.9711 North 487 560 41,000  Level Washington Center
Wed 11:01:50 AM 33.9317 -77.9472 North 487 560 41,000  Level Washington Center
Wed 11:02:50 AM 34.0656 -77.9233 North 487 560 41,000  Level Washington Center
Wed 11:03:48 AM 34.1997 -77.8994 North 482 555 41,000  Level Washington Center
Wed 11:04:49 AM 34.3356 -77.8806 North 488 562 41,000  Level Washington Center
Wed 11:05:50 AM 34.4692 -77.8769 North 488 562 41,000  Level Washington Center
Wed 11:06:50 AM 34.6028 -77.8756 360° North 477 549 41,000  Level Washington Center
Wed 11:07:48 AM 34.7386 -77.8692 North 477 549 41,000  Level Washington Center
Wed 11:08:48 AM 34.8700 -77.8678 360° North 477 549 41,000  Level Washington Center
Wed 11:09:49 AM 35.0078 -77.8642 North 477 549 41,000  Level Washington Center
Wed 11:10:50 AM 35.1414 -77.8628 360° North 477 549 41,000  Level Washington Center
Wed 11:11:50 AM 35.2750 -77.8614 360° North 477 549 41,000  Level Washington Center
Wed 11:12:48 AM 35.4128 -77.8603 360° North 482 555 41,000  Level Washington Center
Wed 11:13:49 AM 35.5461 -77.8589 360° North 482 555 41,000  Level Washington Center
Wed 11:14:49 AM 35.6839 -77.8553 North 482 555 41,000  Level Washington Center
Wed 11:15:50 AM 35.8197 -77.8514 North 482 555 41,000  Level Washington Center
Wed 11:16:50 AM 35.9553 -77.8500 360° North 482 555 41,000  Level Washington Center
Wed 11:17:48 AM 36.0931 -77.8489 360° North 482 555 41,000  Level Washington Center
Wed 11:18:48 AM 36.2433 -77.8481 360° North 487 560 41,000  Level Washington Center
Wed 11:19:49 AM 36.3811 -77.8469 360° North 487 560 41,000  Level Washington Center
Wed 11:20:49 AM 36.5147 -77.8456 360° North 480 552 41,000  Level Washington Center
Wed 11:21:50 AM 36.6503 -77.8442 360° North 480 552 41,000  Level Washington Center
Wed 11:22:50 AM 36.7881 -77.8431 360° North 480 552 41,000  Level Washington Center
Wed 11:23:50 AM 36.9258 -77.8392 North 485 558 41,000  Level Washington Center
Wed 11:24:48 AM 37.0614 -77.8381 360° North 490 564 41,000  Level Washington Center
Wed 11:25:48 AM 37.1992 -77.8369 360° North 490 564 41,000  Level Washington Center
Wed 11:26:49 AM 37.3369 -77.8331 North 490 564 41,000  Level Washington Center
Wed 11:27:49 AM 37.4725 -77.8292 North 490 564 41,000  Level Washington Center
Wed 11:28:50 AM 37.6008 -77.7647 22° Northeast 490 564 41,000  Level Washington Center
Wed 11:29:48 AM 37.7153 -77.6606 36° Northeast 482 555 41,000  Level Washington Center
Wed 11:30:49 AM 37.8319 -77.5531 36° Northeast 499 574 41,000  Level Washington Center
Wed 11:31:49 AM 37.9483 -77.4456 36° Northeast 507 583 41,000  Level Washington Center
Wed 11:32:50 AM 38.0625 -77.3456 35° Northeast 507 583 41,000 -496 Level Washington Center
Wed 11:33:50 AM 38.1786 -77.2375 36° Northeast 512 589 40,000 -1,373 Descending Washington Center
Wed 11:34:48 AM 38.2928 -77.1286 37° Northeast 507 583 38,300 -2,034 Descending Washington Center
Wed 11:35:48 AM 38.4128 -77.0200 35° Northeast 512 589 36,000 -2,430 Descending Washington Center
Wed 11:36:49 AM 38.5308 -76.9081 37° Northeast 517 595 33,400 -2,529 Descending Washington Center
Wed 11:37:49 AM 38.6508 -76.7958 36° Northeast 524 603 30,900 -2,529 Descending Washington Center
Wed 11:38:50 AM 38.7731 -76.6700 39° Northeast 537 618 28,300 -2,529 Descending Washington Center
Wed 11:39:50 AM 38.8847 -76.5411 42° Northeast 543 625 25,800 -2,150 Descending Washington Center
Wed 11:40:50 AM 38.9939 -76.4142 42° Northeast 533 613 24,000 -915 Descending Washington Center
Wed 11:41:48 AM 39.1031 -76.2869 42° Northeast 528 608 24,000  Level Washington Center
Wed 11:42:50 AM 39.2122 -76.1594 42° Northeast 523 602 24,000 -200 Level Washington Center
Wed 11:43:48 AM 39.3253 -76.0397 39° Northeast 523 602 23,600 -1,923 Descending Washington Center
Wed 11:45:51 AM 39.5667 -75.8167 35° Northeast 480 552 18,200 -2,576 Descending Philadelphia TRACON
Wed 11:46:52 AM 39.6667 -75.7167 38° Northeast 472 543 15,700 -2,430 Descending Philadelphia TRACON
Wed 11:47:52 AM 39.7667 -75.6167 38° Northeast 462 532 13,300 -1,286 Descending Philadelphia TRACON
Wed 11:48:58 AM 39.8833 -75.5167 33° Northeast 445 512 13,000 -151 Descending Philadelphia TRACON
Wed 11:49:51 AM 39.9833 -75.4333 33° Northeast 444 511 13,000  Level Philadelphia TRACON
Wed 11:51:03 AM 40.0833 -75.3333 37° Northeast 409 471 13,000 -494 Level Philadelphia TRACON
Wed 11:52:41 AM 40.2167 -75.2167 34° Northeast 352 405 11,600 -1,177 Descending New York TRACON
Wed 11:53:41 AM 40.3000 -75.1333 37° Northeast 341 392 9,900 -1,684 Descending New York TRACON
Wed 11:54:35 AM 40.3500 -75.0667 45° Northeast 343 395 8,400 -1,438 Descending New York TRACON
Wed 11:55:42 AM 40.4333 -74.9667 42° Northeast 325 374 7,000 -1,039 Descending New York TRACON
Wed 11:56:42 AM 40.4833 -74.8833 52° Northeast 320 368 6,200 -900 Descending New York TRACON
Wed 11:57:42 AM 40.5500 -74.8000 44° Northeast 317 365 5,200 -1,000 Descending New York TRACON
Wed 11:58:42 AM 40.6167 -74.7333 37° Northeast 301 346 4,200 -600 Descending New York TRACON
Wed 11:59:42 AM 40.6833 -74.6667 37° Northeast 305 351 4,000 -105 Descending New York TRACON
Wed 12:00:36 PM 40.7500 -74.6167 30° Northeast 304 350 4,000  Level New York TRACON
Wed 12:01:36 PM 40.8167 -74.5667 30° Northeast 300 345 4,000 -300 Level New York TRACON
Wed 12:02:36 PM 40.8833 -74.4833 43° Northeast 294 338 3,400 -496 Descending New York TRACON
Wed 12:03:37 PM 40.9333 -74.4167 45° Northeast 285 328 3,000 -198 Descending New York TRACON
Wed 12:04:37 PM 40.9667 -74.3167 66° East 286 329 3,000 -500 Level New York TRACON
Wed 12:05:37 PM 41.0000 -74.2333 62° Northeast 272 313 2,000 -500 Descending New York TRACON
Wed 12:06:37 PM 41.0167 -74.1500 75° East 226 260 2,000  Level New York TRACON
Wed 12:07:32 PM 41.0167 -74.0667 90° East 222 255 2,000  Level New York TRACON
Wed 12:08:31 PM 41.0167 -74.0000 90° East 197 227 2,000  Level New York TRACON
Wed 12:09:31 PM 41.0000 -73.9500 114° Southeast 185 213 2,000  Level New York TRACON
Wed 12:10:31 PM 40.9500 -73.9500 180° South 162 186 2,000 -150 Level New York TRACON
Wed 12:11:31 PM 40.9167 -73.9833 217° Southwest 146 168 1,700 -381 Descending New York TRACON
Wed 12:12:37 PM 40.9000 -74.0167 237° Southwest 117 135 1,200 -619 Descending New York TRACON
Wed 12:13:37 PM 40.8667 -74.0500 217° Southwest 130 150 400 -800 Descending New York TRACON

Login

Don't have an account? Register now (free) for customized features, flight alerts, and more!